createdAt,value
2018-03-25T00:01:38.802Z,63.10
2018-03-25T00:04:06.252Z,63.00
2018-03-25T00:06:33.731Z,62.60
2018-03-25T00:09:01.184Z,63.00
2018-03-25T00:11:28.639Z,63.60
2018-03-25T00:13:56.102Z,63.40
2018-03-25T00:16:23.606Z,80.10
2018-03-25T00:18:51.066Z,71.80
2018-03-25T00:21:18.532Z,63.70
2018-03-25T00:23:45.984Z,63.40
2018-03-25T00:26:14.219Z,63.40
2018-03-25T00:28:42.440Z,64.00
2018-03-25T00:31:09.923Z,63.40
2018-03-25T00:33:37.387Z,63.20
2018-03-25T00:36:05.646Z,63.90
2018-03-25T00:38:33.108Z,63.80
2018-03-25T00:41:00.586Z,63.60
2018-03-25T00:43:28.039Z,63.10
2018-03-25T00:45:55.494Z,62.90
2018-03-25T00:48:22.954Z,62.70
2018-03-25T00:50:50.446Z,62.70
2018-03-25T00:53:17.893Z,62.80
2018-03-25T00:55:46.121Z,63.10
2018-03-25T00:58:13.581Z,63.00
2018-03-25T01:00:41.037Z,62.90
2018-03-25T01:03:08.490Z,62.30
2018-03-25T01:05:36.719Z,62.50
2018-03-25T01:08:04.943Z,61.90
2018-03-25T01:10:32.415Z,90.50
2018-03-25T01:12:59.874Z,60.20
2018-03-25T01:18:22.913Z,60.90
2018-03-25T01:20:50.362Z,93.80
2018-03-25T01:23:17.838Z,70.30
2018-03-25T01:25:45.285Z,82.90
2018-03-25T01:28:12.752Z,63.10
2018-03-25T01:30:40.209Z,63.50
2018-03-25T01:33:07.664Z,64.20
2018-03-25T01:35:35.131Z,64.80
2018-03-25T01:38:02.598Z,65.20
2018-03-25T01:40:30.064Z,65.60
2018-03-25T01:42:57.539Z,65.70
2018-03-25T01:45:25.762Z,65.30
2018-03-25T01:47:53.231Z,65.30
2018-03-25T01:50:20.685Z,65.10
2018-03-25T01:52:48.142Z,64.50
2018-03-25T01:55:15.594Z,63.80
2018-03-25T01:57:43.053Z,63.50
2018-03-25T02:00:10.520Z,63.30
2018-03-25T02:02:37.986Z,63.00
2018-03-25T02:05:05.446Z,64.10
2018-03-25T02:07:32.905Z,63.80
2018-03-25T02:10:00.372Z,64.00
2018-03-25T02:12:27.833Z,66.70
2018-03-25T02:14:56.084Z,65.10
2018-03-25T02:17:23.532Z,64.40
2018-03-25T02:19:51.036Z,80.80
2018-03-25T02:22:18.867Z,64.00
2018-03-25T02:24:46.321Z,85.30
2018-03-25T02:27:13.786Z,64.70
2018-03-25T02:29:41.247Z,64.60
2018-03-25T02:32:08.709Z,64.40
2018-03-25T02:34:36.175Z,63.90
2018-03-25T02:37:04.403Z,63.40
2018-03-25T02:39:31.854Z,63.40
2018-03-25T02:41:59.312Z,63.40
2018-03-25T02:44:26.775Z,63.50
2018-03-25T02:46:54.231Z,62.30
2018-03-25T02:49:21.694Z,62.70
2018-03-25T02:51:49.923Z,62.90
2018-03-25T02:54:18.150Z,62.70
2018-03-25T02:56:45.613Z,62.60
2018-03-25T02:59:13.057Z,63.70
2018-03-25T03:01:40.514Z,63.50
2018-03-25T03:04:07.973Z,63.00
2018-03-25T03:06:35.435Z,62.60
2018-03-25T03:09:02.893Z,63.10
2018-03-25T03:11:30.351Z,63.40
2018-03-25T03:13:57.804Z,63.10
2018-03-25T03:16:25.458Z,63.10
2018-03-25T03:18:53.727Z,64.70
2018-03-25T03:21:21.187Z,87.70
2018-03-25T03:23:48.627Z,86.80
2018-03-25T03:26:16.479Z,64.10
2018-03-25T03:28:43.946Z,87.80
2018-03-25T03:31:11.395Z,65.00
2018-03-25T03:33:38.859Z,64.60
2018-03-25T03:36:06.323Z,65.20
2018-03-25T03:38:33.783Z,65.30
2018-03-25T03:41:01.234Z,65.20
2018-03-25T03:43:28.698Z,64.60
2018-03-25T03:45:56.166Z,64.50
2018-03-25T03:48:23.629Z,64.20
2018-03-25T03:50:51.090Z,64.20
2018-03-25T03:53:18.570Z,63.90
2018-03-25T03:55:46.035Z,63.90
2018-03-25T03:58:14.271Z,62.90
2018-03-25T04:00:41.721Z,62.80
2018-03-25T04:03:09.170Z,61.90
2018-03-25T04:05:36.634Z,62.50
2018-03-25T04:08:04.093Z,62.60
2018-03-25T04:10:31.557Z,63.00
2018-03-25T04:12:59.019Z,63.80
2018-03-25T04:15:26.478Z,62.50
2018-03-25T04:17:53.942Z,61.70
2018-03-25T04:20:21.408Z,90.10
2018-03-25T04:22:48.873Z,61.60
2018-03-25T04:25:17.097Z,63.70
2018-03-25T04:27:44.586Z,79.70
2018-03-25T04:30:12.045Z,84.60
2018-03-25T04:32:39.493Z,63.40
2018-03-25T04:35:06.939Z,63.10
2018-03-25T04:37:34.389Z,63.10
2018-03-25T04:40:01.838Z,63.00
2018-03-25T04:42:29.310Z,63.10
2018-03-25T04:44:56.770Z,63.20
2018-03-25T04:47:24.845Z,63.20
2018-03-25T04:49:52.305Z,62.80
2018-03-25T04:52:19.766Z,62.70
2018-03-25T04:54:47.226Z,62.50
2018-03-25T04:57:14.699Z,62.00
2018-03-25T04:59:42.930Z,60.50
2018-03-25T05:02:10.387Z,60.40
2018-03-25T05:04:37.847Z,60.70
2018-03-25T05:07:05.319Z,61.10
2018-03-25T05:09:32.798Z,61.70
2018-03-25T05:12:00.251Z,62.50
2018-03-25T05:14:27.714Z,63.20
2018-03-25T05:16:55.179Z,63.70
2018-03-25T05:19:23.407Z,64.40
2018-03-25T05:21:50.878Z,63.80
2018-03-25T05:24:18.337Z,83.80
2018-03-25T05:26:45.806Z,61.00
2018-03-25T05:29:13.671Z,60.40
2018-03-25T05:31:41.150Z,61.10
2018-03-25T05:34:09.450Z,61.60
2018-03-25T05:36:36.859Z,61.40
2018-03-25T05:39:05.242Z,62.00
2018-03-25T05:41:32.711Z,63.00
2018-03-25T05:44:00.949Z,64.20
2018-03-25T05:46:28.415Z,64.00
2018-03-25T05:48:55.879Z,64.10
2018-03-25T05:51:23.336Z,63.90
2018-03-25T05:53:50.814Z,64.00
2018-03-25T05:56:19.048Z,64.10
2018-03-25T05:58:47.275Z,64.10
2018-03-25T06:01:15.541Z,63.80
2018-03-25T06:03:43.741Z,63.40
2018-03-25T06:06:11.189Z,63.40
2018-03-25T06:08:38.659Z,63.00
2018-03-25T06:11:06.122Z,63.10
2018-03-25T06:13:33.632Z,63.00
2018-03-25T06:16:01.051Z,63.10
2018-03-25T06:18:28.507Z,63.10
2018-03-25T06:20:56.331Z,87.90
2018-03-25T06:23:24.587Z,63.80
2018-03-25T06:25:52.010Z,83.10
2018-03-25T06:28:19.657Z,63.90
2018-03-25T06:30:47.127Z,84.30
2018-03-25T06:33:14.578Z,80.30
2018-03-25T06:35:42.038Z,64.70
2018-03-25T06:38:09.499Z,65.00
2018-03-25T06:40:36.957Z,65.10
2018-03-25T06:43:04.810Z,65.30
2018-03-25T06:45:32.273Z,65.40
2018-03-25T06:47:59.735Z,66.80
2018-03-25T06:50:27.192Z,66.80
2018-03-25T06:52:54.647Z,65.80
2018-03-25T06:55:22.106Z,65.10
2018-03-25T06:57:49.565Z,64.80
2018-03-25T07:00:17.029Z,64.50
2018-03-25T07:02:46.002Z,63.20
2018-03-25T07:05:13.458Z,62.40
2018-03-25T07:07:41.681Z,60.50
2018-03-25T07:10:09.912Z,59.70
2018-03-25T07:12:37.387Z,59.60
2018-03-25T07:15:04.856Z,58.80
2018-03-25T07:17:32.310Z,58.30
2018-03-25T07:19:59.778Z,58.30
2018-03-25T07:22:27.296Z,57.80
2018-03-25T07:24:55.470Z,55.50
2018-03-25T07:27:22.927Z,79.30
2018-03-25T07:29:50.379Z,56.20
2018-03-25T07:32:17.852Z,53.40
2018-03-25T07:34:45.305Z,51.90
2018-03-25T07:37:12.765Z,52.40
2018-03-25T07:39:40.221Z,51.20
2018-03-25T07:42:07.681Z,50.10
2018-03-25T07:44:35.146Z,49.50
2018-03-25T07:47:02.598Z,48.50
2018-03-25T07:49:30.071Z,48.30
2018-03-25T07:51:57.538Z,47.80
2018-03-25T07:54:28.425Z,47.10
2018-03-25T07:56:55.878Z,46.40
2018-03-25T07:59:23.338Z,43.90
2018-03-25T08:01:50.795Z,43.90
2018-03-25T08:04:18.251Z,43.40
2018-03-25T08:06:45.708Z,41.70
2018-03-25T08:09:13.227Z,41.50
2018-03-25T08:11:40.650Z,40.50
2018-03-25T08:14:08.114Z,40.50
2018-03-25T08:16:35.567Z,40.20
2018-03-25T08:19:03.030Z,39.60
2018-03-25T08:21:30.498Z,39.40
2018-03-25T08:23:57.960Z,38.20
2018-03-25T08:26:26.192Z,36.70
2018-03-25T08:28:53.668Z,45.10
2018-03-25T08:31:21.123Z,36.70
2018-03-25T08:33:48.645Z,48.80
2018-03-25T08:36:16.416Z,44.40
2018-03-25T08:38:43.873Z,37.30
2018-03-25T08:41:12.107Z,37.00
2018-03-25T08:43:40.330Z,34.70
2018-03-25T08:46:07.803Z,34.60
2018-03-25T08:48:35.271Z,35.90
2018-03-25T08:51:02.732Z,35.70
2018-03-25T08:53:30.181Z,35.20
2018-03-25T08:55:57.649Z,35.80
2018-03-25T08:58:25.094Z,34.30
2018-03-25T09:00:52.556Z,35.30
2018-03-25T09:03:20.015Z,33.90
2018-03-25T09:05:47.481Z,34.80
2018-03-25T09:08:14.933Z,35.50
2018-03-25T09:10:42.401Z,34.40
2018-03-25T09:13:10.626Z,33.60
2018-03-25T09:15:38.102Z,33.50
2018-03-25T09:18:05.582Z,33.20
2018-03-25T09:20:33.037Z,33.30
2018-03-25T09:23:00.484Z,33.80
2018-03-25T09:25:27.959Z,32.90
2018-03-25T09:27:55.410Z,32.70
2018-03-25T09:30:22.874Z,30.30
2018-03-25T09:32:54.469Z,29.90
2018-03-25T09:35:21.937Z,41.50
2018-03-25T09:37:49.398Z,30.40
2018-03-25T09:40:16.847Z,28.30
2018-03-25T09:42:44.313Z,28.00
2018-03-25T09:45:12.164Z,28.70
2018-03-25T09:47:40.396Z,29.00
2018-03-25T09:50:08.625Z,28.40
2018-03-25T09:52:36.091Z,28.40
2018-03-25T09:55:03.543Z,27.50
2018-03-25T09:57:31.019Z,28.00
2018-03-25T09:59:58.486Z,28.10
2018-03-25T10:02:26.831Z,27.90
2018-03-25T10:04:54.285Z,27.80
2018-03-25T10:07:21.753Z,28.10
2018-03-25T10:09:49.209Z,28.50
2018-03-25T10:12:16.666Z,28.80
2018-03-25T10:14:44.126Z,28.60
2018-03-25T10:17:11.585Z,28.10
2018-03-25T10:19:39.057Z,28.30
2018-03-25T10:22:06.527Z,28.50
2018-03-25T10:24:33.986Z,27.90
2018-03-25T10:27:02.211Z,28.60
2018-03-25T10:29:29.671Z,35.00
2018-03-25T10:31:57.121Z,31.80
2018-03-25T10:34:24.592Z,30.50
2018-03-25T10:36:52.060Z,37.50
2018-03-25T10:39:19.509Z,37.20
2018-03-25T10:41:46.979Z,35.70
2018-03-25T10:44:14.430Z,28.70
2018-03-25T10:46:41.912Z,28.20
2018-03-25T10:49:10.127Z,28.50
2018-03-25T10:51:37.590Z,28.50
2018-03-25T10:54:05.049Z,28.30
2018-03-25T10:56:32.523Z,29.30
2018-03-25T10:58:59.989Z,28.80
2018-03-25T11:01:27.466Z,29.50
2018-03-25T11:03:54.910Z,28.60
2018-03-25T11:06:22.370Z,27.60
2018-03-25T11:08:49.847Z,28.50
2018-03-25T11:11:18.073Z,28.70
2018-03-25T11:13:45.522Z,28.60
2018-03-25T11:16:13.008Z,28.60
2018-03-25T11:18:40.462Z,28.40
2018-03-25T11:21:07.913Z,28.20
2018-03-25T11:23:35.369Z,28.90
2018-03-25T11:26:02.829Z,28.20
2018-03-25T11:28:30.297Z,28.00
2018-03-25T11:30:57.760Z,28.70
2018-03-25T11:33:25.216Z,27.10
2018-03-25T11:35:52.718Z,34.50
2018-03-25T11:38:20.338Z,28.30
2018-03-25T11:40:47.871Z,28.00
2018-03-25T11:43:15.449Z,28.40
2018-03-25T11:45:43.766Z,28.00
2018-03-25T11:48:11.331Z,28.00
2018-03-25T11:50:38.844Z,28.70
2018-03-25T11:53:06.354Z,28.80
2018-03-25T11:55:33.889Z,28.60
2018-03-25T11:58:01.449Z,28.30
2018-03-25T12:00:29.010Z,28.70
2018-03-25T12:02:56.553Z,29.30
2018-03-25T12:05:24.040Z,28.20
2018-03-25T12:07:51.496Z,28.20
2018-03-25T12:10:18.959Z,27.90
2018-03-25T12:12:46.415Z,27.80
2018-03-25T12:15:13.879Z,28.40
2018-03-25T12:17:41.348Z,28.30
2018-03-25T12:20:08.796Z,28.30
2018-03-25T12:22:36.268Z,28.50
2018-03-25T12:25:03.722Z,27.80
2018-03-25T12:27:31.189Z,27.80
2018-03-25T12:29:58.810Z,31.10
2018-03-25T12:32:26.263Z,29.10
2018-03-25T12:34:53.723Z,34.70
2018-03-25T12:37:21.955Z,28.30
2018-03-25T12:39:49.410Z,28.30
2018-03-25T12:42:16.878Z,28.30
2018-03-25T12:44:44.369Z,29.60
2018-03-25T12:47:12.569Z,28.30
2018-03-25T12:49:40.022Z,28.20
2018-03-25T12:52:07.487Z,28.40
2018-03-25T12:54:34.959Z,28.90
2018-03-25T12:57:02.419Z,28.90
2018-03-25T12:59:29.874Z,28.60
2018-03-25T13:01:57.330Z,28.70
2018-03-25T13:04:24.790Z,28.70
2018-03-25T13:06:52.271Z,29.50
2018-03-25T13:09:20.501Z,29.60
2018-03-25T13:11:47.987Z,29.50
2018-03-25T13:14:15.437Z,28.80
2018-03-25T13:16:42.901Z,29.50
2018-03-25T13:19:10.350Z,29.50
2018-03-25T13:21:37.801Z,29.40
2018-03-25T13:24:06.026Z,29.40
2018-03-25T13:26:33.494Z,29.50
2018-03-25T13:29:00.942Z,29.40
2018-03-25T13:31:28.390Z,29.10
2018-03-25T13:33:55.850Z,37.10
2018-03-25T13:36:24.067Z,28.70
2018-03-25T13:38:51.521Z,28.70
2018-03-25T13:41:18.985Z,29.30
2018-03-25T13:43:46.443Z,29.50
2018-03-25T13:46:13.898Z,29.70
2018-03-25T13:48:41.362Z,29.10
2018-03-25T13:51:09.582Z,28.90
2018-03-25T13:53:37.050Z,29.30
2018-03-25T13:56:04.500Z,28.80
2018-03-25T13:58:31.978Z,28.60
2018-03-25T14:00:59.450Z,29.40
2018-03-25T14:03:26.893Z,29.80
2018-03-25T14:05:54.399Z,29.30
2018-03-25T14:08:21.872Z,29.20
2018-03-25T14:10:49.307Z,29.40
2018-03-25T14:13:16.787Z,28.90
2018-03-25T14:15:45.006Z,29.20
2018-03-25T14:18:12.462Z,29.10
2018-03-25T14:20:39.921Z,29.80
2018-03-25T14:23:07.403Z,29.70
2018-03-25T14:25:34.831Z,28.60
2018-03-25T14:28:02.279Z,29.30
2018-03-25T14:30:29.736Z,29.10
2018-03-25T14:32:57.193Z,43.60
2018-03-25T14:35:24.667Z,35.40
2018-03-25T14:37:52.128Z,40.90
2018-03-25T14:40:19.587Z,28.90
2018-03-25T14:42:47.046Z,29.20
2018-03-25T14:45:14.501Z,29.60
2018-03-25T14:47:41.967Z,29.60
2018-03-25T14:50:09.427Z,29.80
2018-03-25T14:52:36.886Z,29.60
2018-03-25T14:55:04.341Z,29.80
2018-03-25T14:57:31.822Z,29.80
2018-03-25T15:00:00.033Z,29.90
2018-03-25T15:02:27.493Z,29.80
2018-03-25T15:04:55.723Z,30.30
2018-03-25T15:07:23.180Z,30.10
2018-03-25T15:09:51.410Z,29.50
2018-03-25T15:12:18.925Z,29.40
2018-03-25T15:14:46.333Z,29.60
2018-03-25T15:17:13.781Z,29.80
2018-03-25T15:19:41.276Z,29.80
2018-03-25T15:22:08.688Z,29.90
2018-03-25T15:24:36.138Z,29.90
2018-03-25T15:27:03.602Z,30.20
2018-03-25T15:29:31.050Z,30.00
2018-03-25T15:31:58.512Z,30.00
2018-03-25T15:34:25.968Z,30.10
2018-03-25T15:36:53.427Z,29.90
2018-03-25T15:39:20.897Z,37.20
2018-03-25T15:41:48.342Z,30.40
2018-03-25T15:44:15.834Z,30.50
2018-03-25T15:46:43.290Z,30.30
2018-03-25T15:49:10.750Z,30.70
2018-03-25T15:51:38.978Z,30.10
2018-03-25T15:54:06.443Z,29.70
2018-03-25T15:56:33.900Z,30.30
2018-03-25T15:59:01.364Z,30.30
2018-03-25T16:01:28.819Z,31.40
2018-03-25T16:03:56.286Z,31.00
2018-03-25T16:06:23.759Z,31.20
2018-03-25T16:08:51.227Z,30.80
2018-03-25T16:11:18.680Z,31.30
2018-03-25T16:13:46.144Z,30.60
2018-03-25T16:16:14.379Z,31.10
2018-03-25T16:18:41.829Z,31.10
2018-03-25T16:21:09.299Z,31.30
2018-03-25T16:23:36.746Z,31.20
2018-03-25T16:26:04.205Z,31.30
2018-03-25T16:28:31.654Z,32.00
2018-03-25T16:30:59.131Z,31.80
2018-03-25T16:33:26.581Z,31.40
2018-03-25T16:35:54.090Z,31.40
2018-03-25T16:38:21.556Z,43.00
2018-03-25T16:40:49.010Z,32.20
2018-03-25T16:43:16.473Z,35.00
2018-03-25T16:45:43.938Z,31.60
2018-03-25T16:48:11.394Z,31.50
2018-03-25T16:50:38.861Z,31.90
2018-03-25T16:53:06.318Z,32.30
2018-03-25T16:55:33.771Z,32.50
2018-03-25T16:58:01.223Z,32.50
2018-03-25T17:00:28.687Z,32.70
2018-03-25T17:02:56.141Z,32.80
2018-03-25T17:05:23.601Z,32.90
2018-03-25T17:07:51.060Z,33.20
2018-03-25T17:10:18.518Z,33.30
2018-03-25T17:12:45.971Z,33.30
2018-03-25T17:15:13.485Z,33.50
2018-03-25T17:17:41.419Z,33.60
2018-03-25T17:20:08.873Z,33.80
2018-03-25T17:22:36.326Z,33.70
2018-03-25T17:25:03.834Z,33.90
2018-03-25T17:27:32.067Z,35.50
2018-03-25T17:29:59.559Z,35.50
2018-03-25T17:32:27.793Z,36.70
2018-03-25T17:34:55.249Z,39.80
2018-03-25T17:37:22.707Z,38.60
2018-03-25T17:39:50.158Z,37.40
2018-03-25T17:42:17.617Z,37.80
2018-03-25T17:44:45.094Z,38.40
2018-03-25T17:47:12.549Z,39.30
2018-03-25T17:49:40.026Z,39.80
2018-03-25T17:52:08.251Z,41.20
2018-03-25T17:54:35.713Z,41.10
2018-03-25T17:57:03.188Z,41.70
2018-03-25T17:59:30.659Z,41.90
2018-03-25T18:01:58.210Z,42.50
2018-03-25T18:04:26.532Z,42.30
2018-03-25T18:06:54.080Z,42.20
2018-03-25T18:09:21.635Z,42.20
2018-03-25T18:11:49.174Z,42.20
2018-03-25T18:14:16.749Z,42.80
2018-03-25T18:16:44.281Z,43.10
2018-03-25T18:19:12.570Z,43.90
2018-03-25T18:21:40.885Z,44.20
2018-03-25T18:24:08.445Z,44.10
2018-03-25T18:26:36.001Z,44.70
2018-03-25T18:29:03.527Z,44.60
2018-03-25T18:31:31.086Z,45.10
2018-03-25T18:33:58.587Z,46.20
2018-03-25T18:36:26.128Z,46.20
2018-03-25T18:38:53.618Z,55.60
2018-03-25T18:41:21.150Z,70.30
2018-03-25T18:43:48.656Z,54.40
2018-03-25T18:46:16.933Z,47.20
2018-03-25T18:48:45.260Z,46.90
2018-03-25T18:51:12.737Z,46.90
2018-03-25T18:53:40.190Z,47.20
2018-03-25T18:56:07.654Z,47.30
2018-03-25T18:58:36.006Z,47.60
2018-03-25T19:01:03.472Z,48.10
2018-03-25T19:03:30.924Z,47.80
2018-03-25T19:05:58.387Z,47.40
2018-03-25T19:08:25.842Z,47.40
2018-03-25T19:10:53.301Z,47.60
2018-03-25T19:13:20.752Z,48.10
2018-03-25T19:15:48.208Z,48.40
2018-03-25T19:18:15.682Z,48.40
2018-03-25T19:20:43.150Z,48.30
2018-03-25T19:23:11.010Z,48.40
2018-03-25T19:25:38.481Z,48.80
2018-03-25T19:28:05.935Z,48.90
2018-03-25T19:30:33.415Z,49.10
2018-03-25T19:33:00.872Z,48.80
2018-03-25T19:35:29.333Z,48.60
2018-03-25T19:37:56.781Z,48.50
2018-03-25T19:40:24.242Z,48.50
2018-03-25T19:42:51.694Z,54.00
2018-03-25T19:45:19.168Z,49.00
2018-03-25T19:47:46.646Z,49.10
2018-03-25T19:50:14.896Z,49.30
2018-03-25T19:52:42.374Z,49.20
2018-03-25T19:55:10.609Z,49.60
2018-03-25T19:57:38.082Z,49.50
2018-03-25T20:00:05.538Z,49.80
2018-03-25T20:02:32.992Z,49.80
2018-03-25T20:05:00.462Z,49.90
2018-03-25T20:07:27.920Z,50.00
2018-03-25T20:09:56.886Z,50.90
2018-03-25T20:12:24.347Z,50.90
2018-03-25T20:14:51.809Z,51.20
2018-03-25T20:17:19.270Z,51.20
2018-03-25T20:19:46.735Z,51.40
2018-03-25T20:22:14.194Z,51.40
2018-03-25T20:24:41.642Z,51.80
2018-03-25T20:27:09.102Z,52.00
2018-03-25T20:29:36.578Z,52.20
2018-03-25T20:32:04.811Z,52.40
2018-03-25T20:34:32.283Z,52.30
2018-03-25T20:36:59.754Z,52.20
2018-03-25T20:39:27.290Z,58.80
2018-03-25T20:41:54.741Z,52.10
2018-03-25T20:44:22.210Z,52.40
2018-03-25T20:46:49.677Z,52.50
2018-03-25T20:49:17.148Z,52.60
2018-03-25T20:51:45.379Z,53.10
2018-03-25T20:54:13.613Z,53.60
2018-03-25T20:56:41.086Z,53.60
2018-03-25T20:59:08.545Z,54.20
2018-03-25T21:01:36.009Z,54.30
2018-03-25T21:04:03.466Z,54.20
2018-03-25T21:06:30.936Z,54.30
2018-03-25T21:08:58.399Z,54.20
2018-03-25T21:11:26.279Z,54.40
2018-03-25T21:13:53.735Z,54.50
2018-03-25T21:16:21.193Z,54.30
2018-03-25T21:18:48.667Z,54.70
2018-03-25T21:21:16.131Z,54.80
2018-03-25T21:23:44.359Z,55.40
2018-03-25T21:26:11.822Z,55.30
2018-03-25T21:28:39.300Z,55.30
2018-03-25T21:31:06.794Z,55.20
2018-03-25T21:33:34.280Z,54.80
2018-03-25T21:36:01.761Z,54.50
2018-03-25T21:38:29.219Z,55.10
2018-03-25T21:40:56.680Z,82.50
2018-03-25T21:43:24.121Z,55.60
2018-03-25T21:45:51.586Z,77.10
2018-03-25T21:48:19.720Z,57.60
2018-03-25T21:50:47.177Z,56.60
2018-03-25T21:53:14.717Z,56.70
2018-03-25T21:55:42.949Z,57.30
2018-03-25T21:58:10.404Z,57.20
2018-03-25T22:00:37.874Z,56.80
2018-03-25T22:03:06.103Z,57.20
2018-03-25T22:05:33.574Z,57.20
2018-03-25T22:08:01.040Z,57.50
2018-03-25T22:10:28.501Z,57.50
2018-03-25T22:12:55.959Z,57.40
2018-03-25T22:15:23.420Z,57.50
2018-03-25T22:17:50.875Z,57.60
2018-03-25T22:20:18.352Z,57.70
2018-03-25T22:22:45.805Z,57.90
2018-03-25T22:25:13.269Z,58.40
2018-03-25T22:27:40.719Z,58.30
2018-03-25T22:30:08.192Z,58.00
2018-03-25T22:32:35.644Z,57.50
2018-03-25T22:35:03.207Z,57.50
2018-03-25T22:37:30.659Z,57.50
2018-03-25T22:39:58.113Z,58.00
2018-03-25T22:42:25.575Z,58.00
2018-03-25T22:44:53.025Z,58.20
2018-03-25T22:47:20.485Z,81.20
2018-03-25T22:49:47.948Z,58.70
2018-03-25T22:52:15.405Z,58.70
2018-03-25T22:54:43.634Z,58.80
2018-03-25T22:57:11.097Z,58.70
2018-03-25T22:59:38.581Z,58.90
2018-03-25T23:02:06.016Z,58.90
2018-03-25T23:04:33.468Z,59.00
2018-03-25T23:07:00.922Z,59.00
2018-03-25T23:09:28.365Z,58.90
2018-03-25T23:11:55.878Z,59.10
2018-03-25T23:14:24.107Z,60.40
2018-03-25T23:16:51.560Z,59.80
2018-03-25T23:19:19.015Z,60.40
2018-03-25T23:21:46.483Z,61.30
2018-03-25T23:24:13.981Z,61.40
2018-03-25T23:26:41.398Z,60.70
2018-03-25T23:29:08.858Z,60.40
2018-03-25T23:31:36.315Z,60.20
2018-03-25T23:34:03.763Z,60.30
2018-03-25T23:36:31.222Z,60.40
2018-03-25T23:38:58.674Z,59.90
2018-03-25T23:41:26.142Z,80.30
2018-03-25T23:43:53.598Z,84.20
2018-03-25T23:46:21.823Z,59.70
2018-03-25T23:48:50.068Z,59.40
2018-03-25T23:51:17.533Z,59.30
2018-03-25T23:53:44.983Z,59.30
2018-03-25T23:56:12.438Z,59.80
2018-03-25T23:58:39.902Z,59.80
